createdAt,value
2019-05-22T00:01:00.699Z,61.37
2019-05-22T00:03:33.905Z,69.50
2019-05-22T00:06:06.390Z,74.53
2019-05-22T00:08:37.151Z,66.97
2019-05-22T00:11:05.911Z,68.20
2019-05-22T00:13:38.166Z,62.48
2019-05-22T00:16:11.177Z,61.42
2019-05-22T00:18:40.077Z,57.15
2019-05-22T00:21:10.244Z,54.27
2019-05-22T00:23:41.456Z,52.95
2019-05-22T00:26:11.316Z,52.43
2019-05-22T00:28:40.736Z,48.50
2019-05-22T00:31:09.912Z,57.83
2019-05-22T00:33:39.283Z,56.05
2019-05-22T00:36:10.684Z,53.50
2019-05-22T00:38:39.857Z,61.60
2019-05-22T00:41:10.501Z,52.17
2019-05-22T00:43:41.239Z,47.25
2019-05-22T00:46:12.539Z,50.75
2019-05-22T00:48:42.002Z,39.73
2019-05-22T00:51:22.686Z,46.80
2019-05-22T00:53:55.936Z,40.00
2019-05-22T00:56:28.105Z,39.30
2019-05-22T00:59:05.825Z,44.33
2019-05-22T01:01:48.147Z,46.68
2019-05-22T01:04:19.118Z,55.98
2019-05-22T01:06:48.661Z,51.42
2019-05-22T01:09:19.956Z,52.03
2019-05-22T01:11:48.777Z,46.05
2019-05-22T01:14:18.904Z,54.45
2019-05-22T01:16:49.343Z,60.88
2019-05-22T01:19:19.386Z,61.95
2019-05-22T01:21:50.543Z,58.17
2019-05-22T01:24:19.692Z,64.75
2019-05-22T01:26:50.041Z,58.25
2019-05-22T01:29:21.707Z,66.92
2019-05-22T01:32:08.910Z,72.72
2019-05-22T01:34:38.458Z,72.60
2019-05-22T01:37:08.774Z,68.67
2019-05-22T01:39:45.639Z,69.70
2019-05-22T01:42:17.535Z,50.48
2019-05-22T01:44:59.788Z,46.13
2019-05-22T01:47:24.315Z,47.23
2019-05-22T01:49:58.280Z,50.60
2019-05-22T01:52:27.057Z,48.98
2019-05-22T01:54:57.671Z,47.25
2019-05-22T01:57:27.722Z,70.67
2019-05-22T01:59:57.700Z,69.72
2019-05-22T02:02:26.676Z,81.92
2019-05-22T02:04:58.506Z,83.05
2019-05-22T02:07:29.056Z,68.90
2019-05-22T02:09:59.467Z,58.42
2019-05-22T02:12:37.790Z,54.35
2019-05-22T02:15:07.656Z,57.03
2019-05-22T02:17:37.237Z,51.73
2019-05-22T02:20:08.621Z,49.05
2019-05-22T02:22:38.799Z,52.43
2019-05-22T02:25:08.343Z,49.42
2019-05-22T02:27:38.844Z,53.13
2019-05-22T02:30:09.543Z,46.33
2019-05-22T02:32:39.093Z,54.13
2019-05-22T02:35:09.379Z,47.60
2019-05-22T02:37:39.457Z,45.15
2019-05-22T02:40:13.664Z,43.58
2019-05-22T02:42:42.490Z,47.78
2019-05-22T02:45:11.246Z,39.70
2019-05-22T02:47:40.740Z,38.40
2019-05-22T02:50:09.499Z,38.53
2019-05-22T02:52:38.473Z,45.65
2019-05-22T02:55:07.430Z,36.55
2019-05-22T02:57:36.641Z,42.00
2019-05-22T03:00:06.934Z,41.58
2019-05-22T03:02:39.328Z,36.15
2019-05-22T03:05:10.442Z,31.27
2019-05-22T03:07:41.655Z,33.83
2019-05-22T03:10:12.951Z,36.85
2019-05-22T03:12:45.686Z,31.37
2019-05-22T03:15:16.630Z,33.15
2019-05-22T03:17:45.604Z,35.90
2019-05-22T03:20:18.966Z,34.30
2019-05-22T03:23:09.894Z,27.25
2019-05-22T03:25:39.042Z,29.00
2019-05-22T03:28:08.188Z,28.67
2019-05-22T03:30:41.187Z,32.23
2019-05-22T03:33:10.250Z,34.35
2019-05-22T03:35:51.045Z,33.30
2019-05-22T03:38:20.528Z,31.87
2019-05-22T03:40:52.236Z,29.72
2019-05-22T03:43:24.743Z,31.95
2019-05-22T03:45:56.507Z,31.00
2019-05-22T03:48:27.744Z,31.12
2019-05-22T03:51:00.987Z,38.00
2019-05-22T03:53:30.603Z,33.35
2019-05-22T03:55:59.732Z,37.75
2019-05-22T03:58:29.022Z,32.98
2019-05-22T04:00:58.778Z,31.20
2019-05-22T04:03:27.831Z,29.95
2019-05-22T04:05:57.319Z,37.13
2019-05-22T04:08:27.544Z,40.28
2019-05-22T04:10:59.959Z,31.68
2019-05-22T04:13:29.772Z,32.03
2019-05-22T04:15:59.775Z,30.72
2019-05-22T04:18:29.706Z,35.03
2019-05-22T04:21:00.499Z,27.80
2019-05-22T04:23:29.295Z,30.40
2019-05-22T04:25:59.142Z,33.98
2019-05-22T04:28:29.933Z,31.40
2019-05-22T04:31:00.252Z,36.98
2019-05-22T04:33:30.923Z,41.23
2019-05-22T04:36:01.737Z,35.58
2019-05-22T04:38:30.820Z,32.65
2019-05-22T04:41:02.373Z,36.42
2019-05-22T04:43:34.204Z,34.20
2019-05-22T04:46:04.448Z,29.50
2019-05-22T04:51:26.156Z,30.85
2019-05-22T04:53:56.324Z,31.12
2019-05-22T04:56:26.031Z,33.23
2019-05-22T04:58:55.390Z,30.50
2019-05-22T05:01:24.768Z,27.50
2019-05-22T05:03:53.634Z,33.45
2019-05-22T05:06:24.048Z,31.73
2019-05-22T05:08:52.893Z,37.33
2019-05-22T05:11:21.939Z,31.30
2019-05-22T05:13:50.795Z,33.98
2019-05-22T05:16:23.287Z,33.92
2019-05-22T05:18:52.078Z,33.18
2019-05-22T05:21:20.849Z,38.78
2019-05-22T05:23:49.528Z,26.57
2019-05-22T05:26:19.182Z,24.30
2019-05-22T05:28:48.286Z,28.87
2019-05-22T05:31:18.450Z,31.40
2019-05-22T05:33:56.489Z,27.82
2019-05-22T05:36:25.675Z,27.85
2019-05-22T05:38:55.797Z,27.30
2019-05-22T05:41:24.662Z,25.48
2019-05-22T05:43:53.690Z,23.45
2019-05-22T05:46:22.372Z,21.27
2019-05-22T05:48:52.484Z,22.32
2019-05-22T05:51:23.341Z,20.65
2019-05-22T05:54:06.993Z,21.55
2019-05-22T05:56:37.514Z,20.12
2019-05-22T05:59:07.589Z,26.55
2019-05-22T06:01:41.077Z,19.42
2019-05-22T06:04:11.226Z,16.12
2019-05-22T06:06:43.146Z,19.55
2019-05-22T06:09:16.779Z,21.42
2019-05-22T06:11:48.749Z,15.40
2019-05-22T06:14:33.633Z,20.05
2019-05-22T06:17:25.101Z,20.50
2019-05-22T06:19:57.389Z,17.82
2019-05-22T06:22:26.139Z,15.08
2019-05-22T06:25:00.557Z,20.92
2019-05-22T06:27:31.756Z,17.80
2019-05-22T06:30:04.152Z,17.67
2019-05-22T06:32:52.776Z,17.77
2019-05-22T06:35:21.948Z,14.40
2019-05-22T06:38:00.776Z,13.03
2019-05-22T06:40:29.820Z,14.07
2019-05-22T06:43:21.823Z,16.10
2019-05-22T06:45:50.791Z,17.82
2019-05-22T06:48:19.497Z,11.88
2019-05-22T06:50:49.375Z,35.38
2019-05-22T06:53:19.378Z,21.30
2019-05-22T06:55:48.704Z,13.72
2019-05-22T06:58:18.395Z,13.53
2019-05-22T07:01:05.770Z,16.00
2019-05-22T07:03:39.227Z,12.33
2019-05-22T07:06:08.723Z,16.30
2019-05-22T07:08:40.171Z,13.28
2019-05-22T07:11:11.532Z,14.87
2019-05-22T07:13:40.422Z,15.85
2019-05-22T07:16:10.112Z,16.35
2019-05-22T07:18:40.618Z,17.45
2019-05-22T07:21:09.833Z,19.67
2019-05-22T07:23:38.456Z,14.60
2019-05-22T07:26:08.614Z,9.38
2019-05-22T07:28:37.935Z,13.55
2019-05-22T07:31:07.638Z,14.35
2019-05-22T07:33:38.784Z,14.40
2019-05-22T07:36:10.858Z,11.50
2019-05-22T07:38:38.300Z,9.03
2019-05-22T07:41:24.871Z,13.83
2019-05-22T07:43:49.793Z,11.78
2019-05-22T07:46:19.147Z,15.30
2019-05-22T07:48:49.089Z,19.48
2019-05-22T07:51:19.234Z,13.10
2019-05-22T07:53:48.328Z,17.17
2019-05-22T07:56:18.457Z,17.90
2019-05-22T07:58:48.717Z,16.55
2019-05-22T08:01:18.181Z,16.07
2019-05-22T08:03:48.826Z,12.20
2019-05-22T08:06:18.432Z,16.77
2019-05-22T08:08:47.526Z,14.00
2019-05-22T08:11:17.397Z,17.80
2019-05-22T08:13:46.253Z,13.88
2019-05-22T08:16:16.141Z,12.58
2019-05-22T08:18:45.556Z,11.90
2019-05-22T08:21:14.403Z,12.53
2019-05-22T08:23:43.658Z,13.68
2019-05-22T08:26:13.568Z,14.38
2019-05-22T08:28:42.523Z,10.50
2019-05-22T08:31:12.892Z,12.20
2019-05-22T08:33:41.896Z,15.43
2019-05-22T08:36:10.665Z,21.52
2019-05-22T08:38:39.642Z,14.53
2019-05-22T08:41:09.894Z,11.22
2019-05-22T08:44:03.136Z,10.58
2019-05-22T08:46:12.254Z,12.43
2019-05-22T08:48:47.719Z,13.45
2019-05-22T08:51:14.240Z,12.50
2019-05-22T08:53:47.869Z,15.95
2019-05-22T08:56:14.295Z,15.00
2019-05-22T08:58:44.350Z,12.63
2019-05-22T09:01:14.164Z,13.30
2019-05-22T09:03:43.771Z,12.35
2019-05-22T09:06:12.577Z,17.40
2019-05-22T09:08:41.326Z,13.62
2019-05-22T09:11:10.453Z,11.38
2019-05-22T09:13:39.826Z,13.22
2019-05-22T09:16:10.007Z,15.00
2019-05-22T09:18:47.527Z,13.93
2019-05-22T09:21:16.718Z,15.95
2019-05-22T09:23:46.841Z,9.75
2019-05-22T09:26:18.635Z,11.53
2019-05-22T09:28:47.490Z,10.72
2019-05-22T09:31:17.639Z,8.13
2019-05-22T09:33:46.664Z,14.33
2019-05-22T09:36:16.070Z,11.00
2019-05-22T09:38:45.849Z,9.73
2019-05-22T09:41:16.673Z,10.78
2019-05-22T09:43:45.272Z,8.15
2019-05-22T09:46:15.152Z,218.12
2019-05-22T09:48:44.136Z,89.17
2019-05-22T09:51:12.874Z,34.30
2019-05-22T09:53:41.668Z,10.95
2019-05-22T09:56:10.683Z,14.23
2019-05-22T09:58:39.381Z,6.22
2019-05-22T10:01:11.755Z,9.30
2019-05-22T10:03:39.494Z,14.80
2019-05-22T10:06:08.328Z,10.70
2019-05-22T10:08:37.476Z,6.90
2019-05-22T10:11:06.634Z,9.60
2019-05-22T10:13:36.241Z,6.28
2019-05-22T10:16:06.754Z,8.88
2019-05-22T10:18:36.095Z,8.90
2019-05-22T10:21:05.509Z,7.53
2019-05-22T10:23:34.132Z,5.50
2019-05-22T10:26:02.878Z,7.08
2019-05-22T10:28:31.674Z,11.40
2019-05-22T10:31:00.879Z,11.35
2019-05-22T10:33:30.346Z,18.07
2019-05-22T10:35:59.251Z,7.85
2019-05-22T10:38:27.995Z,6.70
2019-05-22T10:40:59.329Z,6.87
2019-05-22T10:43:28.631Z,9.80
2019-05-22T10:46:01.006Z,6.42
2019-05-22T10:48:30.037Z,27.95
2019-05-22T10:50:59.275Z,9.33
2019-05-22T10:53:33.509Z,13.93
2019-05-22T10:55:59.737Z,7.45
2019-05-22T10:58:28.369Z,6.28
2019-05-22T11:00:57.045Z,31.23
2019-05-22T11:03:26.052Z,10.10
2019-05-22T11:06:06.301Z,9.38
2019-05-22T11:08:29.484Z,8.35
2019-05-22T11:10:56.311Z,14.65
2019-05-22T11:13:25.453Z,13.98
2019-05-22T11:15:54.170Z,7.55
2019-05-22T11:18:23.003Z,6.45
2019-05-22T11:20:52.391Z,8.30
2019-05-22T11:23:21.092Z,9.63
2019-05-22T11:25:49.887Z,10.55
2019-05-22T11:28:18.932Z,7.87
2019-05-22T11:30:48.074Z,8.40
2019-05-22T11:33:16.830Z,7.15
2019-05-22T11:36:05.739Z,7.45
2019-05-22T11:38:34.474Z,6.10
2019-05-22T11:41:03.718Z,10.00
2019-05-22T11:43:32.525Z,8.70
2019-05-22T11:46:01.771Z,8.20
2019-05-22T11:48:30.513Z,13.93
2019-05-22T11:51:01.029Z,19.95
2019-05-22T11:53:30.246Z,9.83
2019-05-22T11:56:00.388Z,7.47
2019-05-22T11:58:29.395Z,7.95
2019-05-22T12:00:58.101Z,10.38
2019-05-22T12:03:27.085Z,5.08
2019-05-22T12:05:55.883Z,10.93
2019-05-22T12:08:25.569Z,12.35
2019-05-22T12:10:54.316Z,5.97
2019-05-22T12:13:23.306Z,6.65
2019-05-22T12:15:53.150Z,8.33
2019-05-22T12:18:21.827Z,12.20
2019-05-22T12:20:50.521Z,7.08
2019-05-22T12:23:19.635Z,10.68
2019-05-22T12:25:48.329Z,12.33
2019-05-22T12:28:17.637Z,12.05
2019-05-22T12:30:47.346Z,8.08
2019-05-22T12:33:16.146Z,8.03
2019-05-22T12:35:44.904Z,5.12
2019-05-22T12:38:13.943Z,7.53
2019-05-22T12:40:43.545Z,10.60
2019-05-22T12:43:12.339Z,7.92
2019-05-22T12:45:41.088Z,9.60
2019-05-22T12:48:10.209Z,29.90
2019-05-22T12:50:39.502Z,6.83
2019-05-22T12:53:09.350Z,5.83
2019-05-22T12:55:38.287Z,7.33
2019-05-22T12:58:07.035Z,7.97
2019-05-22T13:00:36.610Z,4.35
2019-05-22T13:03:07.043Z,6.70
2019-05-22T13:05:39.323Z,7.30
2019-05-22T13:08:09.369Z,5.75
2019-05-22T13:10:38.902Z,7.80
2019-05-22T13:13:07.947Z,6.78
2019-05-22T13:15:39.025Z,6.05
2019-05-22T13:18:10.015Z,5.75
2019-05-22T13:20:43.565Z,10.70
2019-05-22T13:23:13.947Z,8.58
2019-05-22T13:25:43.606Z,9.63
2019-05-22T13:28:16.369Z,7.95
2019-05-22T13:30:48.375Z,8.40
2019-05-22T13:33:22.161Z,9.98
2019-05-22T13:35:52.142Z,7.28
2019-05-22T13:38:21.283Z,12.23
2019-05-22T13:40:50.275Z,8.53
2019-05-22T13:43:19.313Z,7.67
2019-05-22T13:45:48.067Z,6.92
2019-05-22T13:48:16.678Z,12.03
2019-05-22T13:50:47.804Z,9.83
2019-05-22T13:53:18.024Z,5.53
2019-05-22T13:55:47.247Z,9.25
2019-05-22T13:58:18.602Z,26.23
2019-05-22T14:00:48.011Z,7.42
2019-05-22T14:03:17.618Z,9.75
2019-05-22T14:05:46.936Z,10.58
2019-05-22T14:08:16.308Z,7.62
2019-05-22T14:10:45.467Z,7.22
2019-05-22T14:13:15.759Z,13.40
2019-05-22T14:15:52.610Z,7.70
2019-05-22T14:18:15.204Z,10.60
2019-05-22T14:20:44.303Z,13.48
2019-05-22T14:23:14.005Z,12.70
2019-05-22T14:25:43.947Z,13.00
2019-05-22T14:28:14.169Z,64.40
2019-05-22T14:30:43.867Z,14.78
2019-05-22T14:33:12.849Z,11.25
2019-05-22T14:35:48.366Z,9.35
2019-05-22T14:38:13.466Z,11.10
2019-05-22T14:40:42.927Z,8.80
2019-05-22T14:43:11.998Z,15.93
2019-05-22T14:45:42.482Z,8.75
2019-05-22T14:48:11.599Z,12.88
2019-05-22T14:50:40.282Z,9.60
2019-05-22T14:53:10.693Z,8.45
2019-05-22T14:55:40.589Z,9.38
2019-05-22T14:58:10.010Z,8.70
2019-05-22T15:00:39.554Z,12.45
2019-05-22T15:03:09.070Z,11.20
2019-05-22T15:05:37.980Z,10.93
2019-05-22T15:08:07.493Z,13.30
2019-05-22T15:10:39.084Z,9.63
2019-05-22T15:13:08.774Z,7.75
2019-05-22T15:15:40.656Z,7.45
2019-05-22T15:18:08.209Z,50.85
2019-05-22T15:20:42.195Z,29.90
2019-05-22T15:23:11.552Z,10.93
2019-05-22T15:25:40.330Z,10.55
2019-05-22T15:28:09.943Z,10.78
2019-05-22T15:30:39.290Z,9.93
2019-05-22T15:33:09.470Z,9.05
2019-05-22T15:35:38.350Z,8.13
2019-05-22T15:38:10.387Z,8.60
2019-05-22T15:40:39.701Z,8.33
2019-05-22T15:43:10.372Z,8.78
2019-05-22T15:45:40.281Z,6.35
2019-05-22T15:48:12.487Z,7.00
2019-05-22T15:50:43.497Z,10.82
2019-05-22T15:53:15.183Z,8.65
2019-05-22T15:55:45.780Z,11.83
2019-05-22T15:58:17.336Z,13.25
2019-05-22T16:00:48.269Z,8.80
2019-05-22T16:03:25.160Z,8.18
2019-05-22T16:05:54.914Z,12.33
2019-05-22T16:08:24.404Z,10.88
2019-05-22T16:10:58.945Z,14.13
2019-05-22T16:13:26.898Z,11.53
2019-05-22T16:15:57.608Z,13.72
2019-05-22T16:18:31.894Z,9.00
2019-05-22T16:21:04.628Z,21.68
2019-05-22T16:23:37.460Z,20.35
2019-05-22T16:26:10.006Z,12.58
2019-05-22T16:28:41.040Z,13.20
2019-05-22T16:31:10.710Z,12.75
2019-05-22T16:33:43.531Z,12.53
2019-05-22T16:36:13.355Z,20.65
2019-05-22T16:38:44.030Z,12.75
2019-05-22T16:41:13.514Z,12.73
2019-05-22T16:43:49.336Z,13.28
2019-05-22T16:46:16.869Z,15.25
2019-05-22T16:48:48.076Z,9.65
2019-05-22T16:51:18.511Z,17.20
2019-05-22T16:53:57.828Z,10.10
2019-05-22T16:56:27.749Z,14.60
2019-05-22T16:58:56.890Z,28.50
2019-05-22T17:01:26.872Z,11.57
2019-05-22T17:03:58.641Z,12.00
2019-05-22T17:06:27.917Z,35.90
2019-05-22T17:08:58.039Z,20.23
2019-05-22T17:11:27.949Z,12.78
2019-05-22T17:13:59.331Z,15.38
2019-05-22T17:16:29.653Z,14.45
2019-05-22T17:18:58.778Z,17.12
2019-05-22T17:21:28.832Z,17.32
2019-05-22T17:23:59.427Z,13.75
2019-05-22T17:26:30.068Z,14.15
2019-05-22T17:28:59.576Z,14.33
2019-05-22T17:31:29.465Z,18.45
2019-05-22T17:33:59.489Z,19.77
2019-05-22T17:36:30.963Z,13.60
2019-05-22T17:38:59.901Z,14.35
2019-05-22T17:41:30.531Z,14.85
2019-05-22T17:44:00.747Z,18.30
2019-05-22T17:46:31.755Z,17.52
2019-05-22T17:49:01.524Z,18.27
2019-05-22T17:51:31.213Z,17.15
2019-05-22T17:54:00.325Z,19.77
2019-05-22T17:56:29.342Z,18.92
2019-05-22T17:58:58.141Z,19.87
2019-05-22T18:01:28.069Z,14.38
2019-05-22T18:03:56.967Z,11.45
2019-05-22T18:06:26.471Z,11.73
2019-05-22T18:08:58.269Z,12.63
2019-05-22T18:11:27.222Z,12.23
2019-05-22T18:14:00.934Z,11.15
2019-05-22T18:16:31.189Z,11.18
2019-05-22T18:19:00.299Z,8.05
2019-05-22T18:21:28.989Z,9.50
2019-05-22T18:24:09.806Z,7.30
2019-05-22T18:26:38.575Z,9.83
2019-05-22T18:29:07.378Z,8.13
2019-05-22T18:31:36.231Z,7.33
2019-05-22T18:34:05.283Z,5.05
2019-05-22T18:36:34.737Z,6.37
2019-05-22T18:39:03.854Z,3.95
2019-05-22T18:41:32.585Z,5.75
2019-05-22T18:44:01.372Z,3.67
2019-05-22T18:46:33.883Z,3.02
2019-05-22T18:49:02.801Z,2.87
2019-05-22T18:51:32.156Z,4.55
2019-05-22T18:54:01.290Z,3.98
2019-05-22T18:56:30.237Z,2.00
2019-05-22T18:58:58.941Z,3.77
2019-05-22T19:01:27.784Z,4.05
2019-05-22T19:03:56.479Z,3.75
2019-05-22T19:06:30.290Z,3.65
2019-05-22T19:08:56.151Z,3.58
2019-05-22T19:11:24.939Z,3.33
2019-05-22T19:13:53.562Z,4.80
2019-05-22T19:16:23.592Z,3.75
2019-05-22T19:18:52.320Z,7.10
2019-05-22T19:21:21.276Z,4.90
2019-05-22T19:23:50.714Z,3.22
2019-05-22T19:26:19.685Z,3.33
2019-05-22T19:28:48.485Z,4.62
2019-05-22T19:31:17.228Z,3.70
2019-05-22T19:33:46.267Z,5.97
2019-05-22T19:36:14.941Z,4.35
2019-05-22T19:38:43.712Z,3.98
2019-05-22T19:41:12.703Z,3.75
2019-05-22T19:43:41.881Z,3.25
2019-05-22T19:46:11.150Z,4.22
2019-05-22T19:48:39.895Z,3.80
2019-05-22T19:51:08.565Z,4.70
2019-05-22T19:53:37.676Z,3.60
2019-05-22T19:56:06.910Z,5.17
2019-05-22T19:58:35.832Z,6.00
2019-05-22T20:01:05.937Z,6.28
2019-05-22T20:03:35.073Z,6.30
2019-05-22T20:06:03.815Z,5.55
2019-05-22T20:08:36.153Z,5.00
2019-05-22T20:11:04.330Z,6.33
2019-05-22T20:13:33.733Z,5.58
2019-05-22T20:16:02.699Z,7.83
2019-05-22T20:18:31.482Z,7.72
2019-05-22T20:21:00.431Z,11.18
2019-05-22T20:23:35.981Z,4.83
2019-05-22T20:26:01.831Z,8.00
2019-05-22T20:28:31.562Z,6.28
2019-05-22T20:31:00.374Z,5.00
2019-05-22T20:33:29.068Z,6.50
2019-05-22T20:35:57.850Z,8.90
2019-05-22T20:38:27.415Z,7.10
2019-05-22T20:40:56.439Z,5.28
2019-05-22T20:43:25.904Z,9.38
2019-05-22T20:45:55.536Z,8.00
2019-05-22T20:48:27.061Z,8.48
2019-05-22T20:51:08.597Z,9.80
2019-05-22T20:53:54.819Z,7.90
2019-05-22T20:56:25.316Z,9.13
2019-05-22T20:58:54.657Z,12.40
2019-05-22T21:01:23.406Z,10.98
2019-05-22T21:03:52.660Z,11.97
2019-05-22T21:06:23.200Z,7.72
2019-05-22T21:08:52.594Z,8.75
2019-05-22T21:11:25.146Z,10.95
2019-05-22T21:13:54.731Z,11.60
2019-05-22T21:16:23.812Z,11.48
2019-05-22T21:18:54.257Z,11.83
2019-05-22T21:21:25.701Z,12.55
2019-05-22T21:24:09.577Z,13.25
2019-05-22T21:26:26.713Z,12.07
2019-05-22T21:28:55.456Z,13.48
2019-05-22T21:31:24.873Z,14.47
2019-05-22T21:33:54.510Z,12.10
2019-05-22T21:36:24.760Z,11.20
2019-05-22T21:38:53.954Z,11.78
2019-05-22T21:41:23.281Z,11.35
2019-05-22T21:43:53.843Z,10.40
2019-05-22T21:46:23.396Z,11.78
2019-05-22T21:48:53.732Z,14.73
2019-05-22T21:51:23.620Z,11.80
2019-05-22T21:53:53.362Z,12.60
2019-05-22T21:56:22.609Z,15.72
2019-05-22T21:58:52.060Z,9.80
2019-05-22T22:01:22.381Z,13.35
2019-05-22T22:03:53.788Z,15.00
2019-05-22T22:06:23.411Z,13.88
2019-05-22T22:08:52.169Z,13.62
2019-05-22T22:11:23.890Z,11.00
2019-05-22T22:13:53.034Z,16.70
2019-05-22T22:16:23.041Z,11.75
2019-05-22T22:18:51.786Z,13.38
2019-05-22T22:21:21.269Z,10.93
2019-05-22T22:23:50.531Z,11.08
2019-05-22T22:26:25.868Z,14.15
2019-05-22T22:28:51.021Z,14.40
2019-05-22T22:31:21.308Z,11.73
2019-05-22T22:33:53.186Z,11.60
2019-05-22T22:36:22.313Z,12.07
2019-05-22T22:38:51.944Z,9.10
2019-05-22T22:41:21.454Z,14.38
2019-05-22T22:43:52.071Z,8.60
2019-05-22T22:46:41.474Z,8.08
2019-05-22T22:49:13.488Z,7.55
2019-05-22T22:51:42.696Z,9.33
2019-05-22T22:54:14.199Z,9.85
2019-05-22T22:56:43.542Z,9.05
2019-05-22T22:59:12.960Z,7.70
2019-05-22T23:01:46.020Z,11.25
2019-05-22T23:04:15.461Z,13.22
2019-05-22T23:06:45.139Z,9.88
2019-05-22T23:09:15.288Z,7.12
2019-05-22T23:11:45.851Z,9.08
2019-05-22T23:14:15.659Z,9.55
2019-05-22T23:16:45.312Z,9.68
2019-05-22T23:19:18.187Z,8.73
2019-05-22T23:21:48.961Z,8.23
2019-05-22T23:24:19.911Z,9.05
2019-05-22T23:26:49.329Z,10.78
2019-05-22T23:29:19.738Z,10.63
2019-05-22T23:31:49.734Z,6.97
2019-05-22T23:34:18.665Z,10.05
2019-05-22T23:36:47.617Z,6.87
2019-05-22T23:39:18.459Z,11.03
2019-05-22T23:41:48.665Z,9.18
2019-05-22T23:44:20.192Z,8.43
2019-05-22T23:46:49.886Z,7.75
2019-05-22T23:49:19.323Z,7.60
2019-05-22T23:51:48.537Z,10.63
2019-05-22T23:54:17.310Z,9.20
2019-05-22T23:56:46.641Z,10.68
2019-05-22T23:59:16.860Z,9.50
